Terminal Aerodrome Forecast
Issued by NWS

Home | Current Version | Previous Version | Text Only | Print | Product List | Glossary On
Versions: 1 2 3 4 5 6 7 8 9 10 11 12 13 14 15
000
FTUS43 KFGF 201140
TAFTVF
TAF
KTVF 201140Z 2012/2112 01009KT 2SM -SN OVC025
     FM201500 36009KT 2SM -SN OVC035
     FM201700 33009KT P6SM OVC035
     FM201900 32010KT P6SM OVC040
     FM202300 29009KT P6SM BKN035
     FM210200 26008KT P6SM BKN060
     FM210400 24008KT P6SM SCT080=

USA.gov is the U.S. government's official web portal to all federal, state and local government web resources and services.